sensor_id;sensor_type;location;lat;lon;timestamp;pressure;altitude;pressure_sealevel;temperature;humidity
39773;BME280;25451;51.960;6.250;2024-02-15T00:01:01;101519.75;;;13.26;89.41
39773;BME280;25451;51.960;6.250;2024-02-15T00:03:26;101522.28;;;13.27;89.41
39773;BME280;25451;51.960;6.250;2024-02-15T00:05:51;101514.47;;;13.24;89.39
39773;BME280;25451;51.960;6.250;2024-02-15T00:08:17;101521.47;;;13.27;89.50
39773;BME280;25451;51.960;6.250;2024-02-15T00:10:43;101514.22;;;13.26;89.36
39773;BME280;25451;51.960;6.250;2024-02-15T00:13:12;101512.75;;;13.23;89.64
39773;BME280;25451;51.960;6.250;2024-02-15T00:15:37;101511.19;;;13.27;89.53
39773;BME280;25451;51.960;6.250;2024-02-15T00:18:02;101515.31;;;13.25;89.72
39773;BME280;25451;51.960;6.250;2024-02-15T00:20:28;101524.44;;;13.25;89.65
39773;BME280;25451;51.960;6.250;2024-02-15T00:22:54;101523.13;;;13.28;89.45
39773;BME280;25451;51.960;6.250;2024-02-15T00:25:21;101524.22;;;13.27;89.43
39773;BME280;25451;51.960;6.250;2024-02-15T00:27:46;101522.28;;;13.27;89.66
39773;BME280;25451;51.960;6.250;2024-02-15T00:30:12;101514.47;;;13.24;89.50
39773;BME280;25451;51.960;6.250;2024-02-15T00:32:37;101514.22;;;13.26;89.41
39773;BME280;25451;51.960;6.250;2024-02-15T00:35:04;101518.44;;;13.28;89.36
39773;BME280;25451;51.960;6.250;2024-02-15T00:37:33;101529.53;;;13.28;89.72
39773;BME280;25451;51.960;6.250;2024-02-15T00:39:58;101526.75;;;13.28;89.74
39773;BME280;25451;51.960;6.250;2024-02-15T00:42:23;101527.00;;;13.27;89.64
39773;BME280;25451;51.960;6.250;2024-02-15T00:44:49;101521.69;;;13.25;89.38
39773;BME280;25451;51.960;6.250;2024-02-15T00:47:14;101527.81;;;13.27;89.47
39773;BME280;25451;51.960;6.250;2024-02-15T00:49:40;101528.66;;;13.28;89.55
39773;BME280;25451;51.960;6.250;2024-02-15T00:52:05;101525.03;;;13.27;89.48
39773;BME280;25451;51.960;6.250;2024-02-15T00:54:31;101530.59;;;13.27;89.47
39773;BME280;25451;51.960;6.250;2024-02-15T00:56:56;101530.59;;;13.27;89.35
39773;BME280;25451;51.960;6.250;2024-02-15T00:59:21;101525.56;;;13.24;89.42
39773;BME280;25451;51.960;6.250;2024-02-15T01:01:47;101534.22;;;13.28;89.40
39773;BME280;25451;51.960;6.250;2024-02-15T01:04:13;101537.25;;;13.26;89.54
39773;BME280;25451;51.960;6.250;2024-02-15T01:06:38;101538.09;;;13.27;89.64
39773;BME280;25451;51.960;6.250;2024-02-15T01:09:04;101536.38;;;13.26;89.54
39773;BME280;25451;51.960;6.250;2024-02-15T01:11:30;101535.53;;;13.25;89.52
39773;BME280;25451;51.960;6.250;2024-02-15T01:13:58;101532.53;;;13.27;89.24
39773;BME280;25451;51.960;6.250;2024-02-15T01:16:24;101538.09;;;13.27;89.47
39773;BME280;25451;51.960;6.250;2024-02-15T01:18:50;101533.38;;;13.27;89.53
39773;BME280;25451;51.960;6.250;2024-02-15T01:21:15;101526.16;;;13.26;89.56
39773;BME280;25451;51.960;6.250;2024-02-15T01:23:40;101523.38;;;13.26;89.38
39773;BME280;25451;51.960;6.250;2024-02-15T01:26:06;101522.78;;;13.24;89.39
39773;BME280;25451;51.960;6.250;2024-02-15T01:28:31;101523.63;;;13.25;89.59
39773;BME280;25451;51.960;6.250;2024-02-15T01:30:57;101525.31;;;13.26;89.64
39773;BME280;25451;51.960;6.250;2024-02-15T01:33:22;101520.59;;;13.26;89.51
39773;BME280;25451;51.960;6.250;2024-02-15T01:35:48;101525.31;;;13.26;89.28
39773;BME280;25451;51.960;6.250;2024-02-15T01:38:13;101524.44;;;13.25;89.27
39773;BME280;25451;51.960;6.250;2024-02-15T01:40:39;101524.44;;;13.25;89.42
39773;BME280;25451;51.960;6.250;2024-02-15T01:43:04;101521.69;;;13.25;89.25
39773;BME280;25451;51.960;6.250;2024-02-15T01:45:29;101520.25;;;13.23;89.17
39773;BME280;25451;51.960;6.250;2024-02-15T01:47:55;101517.22;;;13.24;89.51
39773;BME280;25451;51.960;6.250;2024-02-15T01:50:21;101512.53;;;13.25;89.37
39773;BME280;25451;51.960;6.250;2024-02-15T01:52:49;101513.38;;;13.25;89.38
39773;BME280;25451;51.960;6.250;2024-02-15T01:55:17;101510.59;;;13.25;89.31
39773;BME280;25451;51.960;6.250;2024-02-15T01:57:44;101506.16;;;13.24;89.27
39773;BME280;25451;51.960;6.250;2024-02-15T02:00:13;101507.00;;;13.25;89.42
39773;BME280;25451;51.960;6.250;2024-02-15T02:02:42;101507.81;;;13.25;89.36
39773;BME280;25451;51.960;6.250;2024-02-15T02:05:08;101502.28;;;13.25;89.36
39773;BME280;25451;51.960;6.250;2024-02-15T02:07:34;101498.91;;;13.23;89.50
39773;BME280;25451;51.960;6.250;2024-02-15T02:09:59;101497.25;;;13.22;89.28
39773;BME280;25451;51.960;6.250;2024-02-15T02:12:25;101506.63;;;13.21;89.29
39773;BME280;25451;51.960;6.250;2024-02-15T02:14:53;101490.00;;;13.21;89.36
39773;BME280;25451;51.960;6.250;2024-02-15T02:17:19;101494.94;;;13.19;89.32
39773;BME280;25451;51.960;6.250;2024-02-15T02:19:45;101494.22;;;13.24;89.28
39773;BME280;25451;51.960;6.250;2024-02-15T02:22:11;101492.28;;;13.24;89.47
39773;BME280;25451;51.960;6.250;2024-02-15T02:24:59;101489.50;;;13.24;89.33
39773;BME280;25451;51.960;6.250;2024-02-15T02:27:29;101490.38;;;13.25;89.38
39773;BME280;25451;51.960;6.250;2024-02-15T02:29:55;101488.66;;;13.24;89.42
39773;BME280;25451;51.960;6.250;2024-02-15T02:32:21;101487.81;;;13.23;89.53
39773;BME280;25451;51.960;6.250;2024-02-15T02:34:46;101491.19;;;13.25;89.26
39773;BME280;25451;51.960;6.250;2024-02-15T02:37:11;101489.50;;;13.24;89.48
39773;BME280;25451;51.960;6.250;2024-02-15T02:39:38;101492.28;;;13.24;89.12
39773;BME280;25451;51.960;6.250;2024-02-15T02:42:04;101484.81;;;13.25;89.36
39773;BME280;25451;51.960;6.250;2024-02-15T02:44:29;101483.97;;;13.24;89.18
39773;BME280;25451;51.960;6.250;2024-02-15T02:46:54;101478.44;;;13.24;89.32
39773;BME280;25451;51.960;6.250;2024-02-15T02:49:20;101476.72;;;13.23;89.47
39773;BME280;25451;51.960;6.250;2024-02-15T02:51:45;101483.97;;;13.24;89.50
39773;BME280;25451;51.960;6.250;2024-02-15T02:54:10;101470.09;;;13.24;89.38
39773;BME280;25451;51.960;6.250;2024-02-15T02:56:36;101471.19;;;13.23;89.27
39773;BME280;25451;51.960;6.250;2024-02-15T02:59:01;101470.09;;;13.24;89.49
39773;BME280;25451;51.960;6.250;2024-02-15T03:01:26;101471.19;;;13.23;89.53
39773;BME280;25451;51.960;6.250;2024-02-15T03:03:53;101467.34;;;13.24;89.18
39773;BME280;25451;51.960;6.250;2024-02-15T03:06:20;101463.72;;;13.24;89.16
39773;BME280;25451;51.960;6.250;2024-02-15T03:08:46;101469.50;;;13.22;89.30
39773;BME280;25451;51.960;6.250;2024-02-15T03:11:11;101464.81;;;13.23;89.38
39773;BME280;25451;51.960;6.250;2024-02-15T03:13:37;101463.97;;;13.22;89.49
39773;BME280;25451;51.960;6.250;2024-02-15T03:16:02;101473.13;;;13.23;89.34
39773;BME280;25451;51.960;6.250;2024-02-15T03:18:29;101460.34;;;13.22;89.40
39773;BME280;25451;51.960;6.250;2024-02-15T03:20:54;101448.66;;;13.20;89.29
39773;BME280;25451;51.960;6.250;2024-02-15T03:23:19;101452.88;;;13.22;89.21
39773;BME280;25451;51.960;6.250;2024-02-15T03:25:45;101463.97;;;13.22;89.20
39773;BME280;25451;51.960;6.250;2024-02-15T03:28:10;101469.50;;;13.22;89.46
39773;BME280;25451;51.960;6.250;2024-02-15T03:30:35;101460.59;;;13.20;89.44
39773;BME280;25451;51.960;6.250;2024-02-15T03:33:01;101467.81;;;13.21;89.48
39773;BME280;25451;51.960;6.250;2024-02-15T03:35:30;101467.22;;;13.19;89.36
39773;BME280;25451;51.960;6.250;2024-02-15T03:37:57;101460.59;;;13.20;89.43
39773;BME280;25451;51.960;6.250;2024-02-15T03:40:22;101453.34;;;13.19;89.25
39773;BME280;25451;51.960;6.250;2024-02-15T03:42:52;101456.13;;;13.19;89.26
39773;BME280;25451;51.960;6.250;2024-02-15T03:45:18;101457.22;;;13.18;89.46
39773;BME280;25451;51.960;6.250;2024-02-15T03:47:43;101452.75;;;13.17;89.25
39773;BME280;25451;51.960;6.250;2024-02-15T03:50:09;101453.00;;;13.16;89.25
39773;BME280;25451;51.960;6.250;2024-02-15T03:52:35;101456.91;;;13.15;89.25
39773;BME280;25451;51.960;6.250;2024-02-15T03:55:01;101467.72;;;13.16;89.37
39773;BME280;25451;51.960;6.250;2024-02-15T03:57:27;101463.50;;;13.14;89.36
39773;BME280;25451;51.960;6.250;2024-02-15T03:59:53;101463.25;;;13.15;89.14
39773;BME280;25451;51.960;6.250;2024-02-15T04:02:20;101464.34;;;13.14;89.26
39773;BME280;25451;51.960;6.250;2024-02-15T04:04:46;101459.88;;;13.13;89.36
39773;BME280;25451;51.960;6.250;2024-02-15T04:07:15;101457.13;;;13.13;89.26
39773;BME280;25451;51.960;6.250;2024-02-15T04:09:44;101460.16;;;13.12;89.22
39773;BME280;25451;51.960;6.250;2024-02-15T04:12:10;101469.91;;;13.14;89.31
39773;BME280;25451;51.960;6.250;2024-02-15T04:14:36;101460.41;;;13.10;89.37
39773;BME280;25451;51.960;6.250;2024-02-15T04:17:03;101453.75;;;13.11;89.03
39773;BME280;25451;51.960;6.250;2024-02-15T04:19:30;101463.50;;;13.14;89.07
39773;BME280;25451;51.960;6.250;2024-02-15T04:21:56;101452.41;;;13.14;89.25
39773;BME280;25451;51.960;6.250;2024-02-15T04:24:21;101453.53;;;13.13;89.27
39773;BME280;25451;51.960;6.250;2024-02-15T04:26:47;101438.22;;;13.10;89.07
39773;BME280;25451;51.960;6.250;2024-02-15T04:29:16;101435.19;;;13.12;89.07
39773;BME280;25451;51.960;6.250;2024-02-15T04:31:43;101438.22;;;13.10;89.02
39773;BME280;25451;51.960;6.250;2024-02-15T04:34:08;101432.69;;;13.10;89.17
39773;BME280;25451;51.960;6.250;2024-02-15T04:36:36;101421.59;;;13.10;89.15
39773;BME280;25451;51.960;6.250;2024-02-15T04:39:02;101436.53;;;13.09;89.10
39773;BME280;25451;51.960;6.250;2024-02-15T04:41:30;101438.69;;;13.07;89.15
39773;BME280;25451;51.960;6.250;2024-02-15T04:43:56;101436.44;;;13.04;89.61
39773;BME280;25451;51.960;6.250;2024-02-15T04:46:22;101428.13;;;13.04;89.27
39773;BME280;25451;51.960;6.250;2024-02-15T04:48:48;101429.78;;;13.05;89.02
39773;BME280;25451;51.960;6.250;2024-02-15T04:51:15;101425.09;;;13.06;88.85
39773;BME280;25451;51.960;6.250;2024-02-15T04:53:41;101425.09;;;13.06;89.19
39773;BME280;25451;51.960;6.250;2024-02-15T04:56:06;101424.25;;;13.05;89.07
39773;BME280;25451;51.960;6.250;2024-02-15T04:58:37;101420.03;;;13.03;89.06
39773;BME280;25451;51.960;6.250;2024-02-15T05:01:03;101423.03;;;13.01;89.38
39773;BME280;25451;51.960;6.250;2024-02-15T05:03:31;101411.94;;;13.01;89.12
39773;BME280;25451;51.960;6.250;2024-02-15T05:05:59;101407.75;;;12.99;89.24
39773;BME280;25451;51.960;6.250;2024-02-15T05:08:25;101407.25;;;13.02;89.23
39773;BME280;25451;51.960;6.250;2024-02-15T05:10:51;101408.09;;;13.02;89.08
39773;BME280;25451;51.960;6.250;2024-02-15T05:13:21;101414.72;;;13.01;88.99
39773;BME280;25451;51.960;6.250;2024-02-15T05:15:46;101409.16;;;13.01;89.04
39773;BME280;25451;51.960;6.250;2024-02-15T05:18:12;101405.59;;;13.01;89.06
39773;BME280;25451;51.960;6.250;2024-02-15T05:20:38;101423.03;;;13.01;89.23
39773;BME280;25451;51.960;6.250;2024-02-15T05:23:03;101408.56;;;12.99;88.95
39773;BME280;25451;51.960;6.250;2024-02-15T05:25:29;101411.34;;;12.99;88.97
39773;BME280;25451;51.960;6.250;2024-02-15T05:27:58;101409.44;;;13.00;88.62
39773;BME280;25451;51.960;6.250;2024-02-15T05:30:24;101415.81;;;13.00;88.99
39773;BME280;25451;51.960;6.250;2024-02-15T05:32:50;101411.94;;;13.01;88.86
39773;BME280;25451;51.960;6.250;2024-02-15T05:35:15;101415.56;;;13.02;89.05
39773;BME280;25451;51.960;6.250;2024-02-15T05:37:43;101408.56;;;12.99;88.79
39773;BME280;25451;51.960;6.250;2024-02-15T05:40:08;101410.53;;;12.99;88.90
39773;BME280;25451;51.960;6.250;2024-02-15T05:42:40;101414.13;;;12.99;88.93
39773;BME280;25451;51.960;6.250;2024-02-15T05:45:28;101410.28;;;13.00;88.82
39773;BME280;25451;51.960;6.250;2024-02-15T05:47:55;101407.97;;;12.97;88.81
39773;BME280;25451;51.960;6.250;2024-02-15T05:50:20;101421.34;;;13.00;88.91
39773;BME280;25451;51.960;6.250;2024-02-15T05:52:49;101417.47;;;13.01;88.74
39773;BME280;25451;51.960;6.250;2024-02-15T05:55:14;101417.47;;;13.01;88.90
39773;BME280;25451;51.960;6.250;2024-02-15T05:57:43;101414.97;;;13.00;88.97
39773;BME280;25451;51.960;6.250;2024-02-15T06:00:09;101421.63;;;12.99;88.78
39773;BME280;25451;51.960;6.250;2024-02-15T06:02:34;101416.66;;;13.01;89.11
39773;BME280;25451;51.960;6.250;2024-02-15T06:05:00;101423.03;;;13.01;88.84
39773;BME280;25451;51.960;6.250;2024-02-15T06:07:28;101418.84;;;12.99;88.92
39773;BME280;25451;51.960;6.250;2024-02-15T06:09:54;101409.44;;;13.00;89.00
39773;BME280;25451;51.960;6.250;2024-02-15T06:12:19;101401.97;;;13.00;88.97
39773;BME280;25451;51.960;6.250;2024-02-15T06:14:45;101399.19;;;13.00;88.94
39773;BME280;25451;51.960;6.250;2024-02-15T06:17:11;101400.84;;;13.01;89.09
39773;BME280;25451;51.960;6.250;2024-02-15T06:19:36;101391.72;;;13.01;89.17
39773;BME280;25451;51.960;6.250;2024-02-15T06:22:03;101378.69;;;13.01;88.92
39773;BME280;25451;51.960;6.250;2024-02-15T06:24:29;101364.00;;;13.01;89.01
39773;BME280;25451;51.960;6.250;2024-02-15T06:26:54;101354.25;;;12.98;89.05
39773;BME280;25451;51.960;6.250;2024-02-15T06:29:27;101332.69;;;13.00;89.16
39773;BME280;25451;51.960;6.250;2024-02-15T06:32:11;101322.44;;;13.01;88.96
39773;BME280;25451;51.960;6.250;2024-02-15T06:34:55;101309.66;;;13.00;89.23
39773;BME280;25451;51.960;6.250;2024-02-15T06:37:39;101311.59;;;12.99;88.98
39773;BME280;25451;51.960;6.250;2024-02-15T06:40:23;101307.16;;;12.98;89.15
39773;BME280;25451;51.960;6.250;2024-02-15T06:42:49;101318.22;;;12.98;89.13
39773;BME280;25451;51.960;6.250;2024-02-15T06:45:14;101327.63;;;12.97;89.30
39773;BME280;25451;51.960;6.250;2024-02-15T06:47:43;101337.88;;;12.97;88.94
39773;BME280;25451;51.960;6.250;2024-02-15T06:50:10;101349.19;;;12.95;89.24
39773;BME280;25451;51.960;6.250;2024-02-15T06:52:37;101351.75;;;12.97;89.21
39773;BME280;25451;51.960;6.250;2024-02-15T06:55:04;101365.59;;;12.97;89.21
39773;BME280;25451;51.960;6.250;2024-02-15T06:57:29;101374.72;;;12.97;89.12
39773;BME280;25451;51.960;6.250;2024-02-15T06:59:55;101379.44;;;12.97;89.18
39773;BME280;25451;51.960;6.250;2024-02-15T07:02:21;101388.00;;;12.95;89.24
39773;BME280;25451;51.960;6.250;2024-02-15T07:04:48;101388.59;;;12.97;88.95
39773;BME280;25451;51.960;6.250;2024-02-15T07:07:14;101388.59;;;12.97;89.26
39773;BME280;25451;51.960;6.250;2024-02-15T07:09:40;101386.06;;;12.96;88.91
39773;BME280;25451;51.960;6.250;2024-02-15T07:12:05;101387.16;;;12.95;89.17
39773;BME280;25451;51.960;6.250;2024-02-15T07:14:30;101382.22;;;12.97;88.98
39773;BME280;25451;51.960;6.250;2024-02-15T07:16:56;101394.13;;;12.97;88.96
39773;BME280;25451;51.960;6.250;2024-02-15T07:19:24;101389.69;;;12.96;89.19
39773;BME280;25451;51.960;6.250;2024-02-15T07:21:51;101385.47;;;12.94;89.22
39773;BME280;25451;51.960;6.250;2024-02-15T07:24:16;101384.16;;;12.96;88.98
39773;BME280;25451;51.960;6.250;2024-02-15T07:26:41;101370.28;;;12.96;88.89
39773;BME280;25451;51.960;6.250;2024-02-15T07:29:07;101364.16;;;12.94;88.87
39773;BME280;25451;51.960;6.250;2024-02-15T07:31:33;101359.69;;;12.93;89.20
39773;BME280;25451;51.960;6.250;2024-02-15T07:33:58;101362.56;;;12.98;89.07
39773;BME280;25451;51.960;6.250;2024-02-15T07:36:24;101346.94;;;12.92;89.26
39773;BME280;25451;51.960;6.250;2024-02-15T07:38:51;101374.50;;;12.99;89.25
39773;BME280;25451;51.960;6.250;2024-02-15T07:41:20;101380.03;;;12.99;89.15
39773;BME280;25451;51.960;6.250;2024-02-15T07:43:48;101380.88;;;12.99;89.19
39773;BME280;25451;51.960;6.250;2024-02-15T07:46:14;101373.06;;;12.96;89.23
39773;BME280;25451;51.960;6.250;2024-02-15T07:48:39;101386.41;;;12.99;89.29
39773;BME280;25451;51.960;6.250;2024-02-15T07:51:09;101385.59;;;12.99;88.98
39773;BME280;25451;51.960;6.250;2024-02-15T07:53:35;101376.16;;;13.00;89.33
39773;BME280;25451;51.960;6.250;2024-02-15T07:56:00;101375.91;;;13.01;89.11
39773;BME280;25451;51.960;6.250;2024-02-15T07:58:25;101383.78;;;13.04;89.31
39773;BME280;25451;51.960;6.250;2024-02-15T08:00:51;101385.94;;;13.02;89.18
39773;BME280;25451;51.960;6.250;2024-02-15T08:03:16;101391.00;;;13.05;89.32
39773;BME280;25451;51.960;6.250;2024-02-15T08:05:41;101387.16;;;13.06;89.14
39773;BME280;25451;51.960;6.250;2024-02-15T08:08:07;101381.59;;;13.06;89.01
39773;BME280;25451;51.960;6.250;2024-02-15T08:10:32;101380.75;;;13.06;89.34
39773;BME280;25451;51.960;6.250;2024-02-15T08:12:59;101389.91;;;13.06;89.18
39773;BME280;25451;51.960;6.250;2024-02-15T08:15:24;101384.97;;;13.08;89.05
39773;BME280;25451;51.960;6.250;2024-02-15T08:17:52;101378.31;;;13.09;89.38
39773;BME280;25451;51.960;6.250;2024-02-15T08:20:20;101382.78;;;13.10;89.25
39773;BME280;25451;51.960;6.250;2024-02-15T08:22:46;101378.56;;;13.08;89.25
39773;BME280;25451;51.960;6.250;2024-02-15T08:25:13;101380.28;;;13.09;89.16
39773;BME280;25451;51.960;6.250;2024-02-15T08:27:41;101395.53;;;13.11;88.93
39773;BME280;25451;51.960;6.250;2024-02-15T08:30:09;101393.03;;;13.10;89.06
39773;BME280;25451;51.960;6.250;2024-02-15T08:32:36;101397.50;;;13.11;89.04
39773;BME280;25451;51.960;6.250;2024-02-15T08:35:02;101401.09;;;13.11;89.38
39773;BME280;25451;51.960;6.250;2024-02-15T08:37:29;101397.25;;;13.12;89.01
39773;BME280;25451;51.960;6.250;2024-02-15T08:39:55;101406.41;;;13.13;88.84
39773;BME280;25451;51.960;6.250;2024-02-15T08:42:22;101395.91;;;13.15;89.33
39773;BME280;25451;51.960;6.250;2024-02-15T08:44:48;101407.81;;;13.15;89.16
39773;BME280;25451;51.960;6.250;2024-02-15T08:47:13;101409.50;;;13.16;89.36
39773;BME280;25451;51.960;6.250;2024-02-15T08:49:39;101405.31;;;13.14;89.33
39773;BME280;25451;51.960;6.250;2024-02-15T08:52:05;101409.25;;;13.18;89.17
39773;BME280;25451;51.960;6.250;2024-02-15T08:54:33;101407.34;;;13.18;89.57
39773;BME280;25451;51.960;6.250;2024-02-15T08:56:58;101414.53;;;13.19;89.40
39773;BME280;25451;51.960;6.250;2024-02-15T08:59:23;101410.09;;;13.18;89.38
39773;BME280;25451;51.960;6.250;2024-02-15T09:01:50;101416.84;;;13.22;89.52
39773;BME280;25451;51.960;6.250;2024-02-15T09:04:16;101415.75;;;13.23;89.50
39773;BME280;25451;51.960;6.250;2024-02-15T09:06:41;101416.00;;;13.22;89.25
39773;BME280;25451;51.960;6.250;2024-02-15T09:09:08;101421.88;;;13.25;89.32
39773;BME280;25451;51.960;6.250;2024-02-15T09:11:33;101408.84;;;13.26;89.20
39773;BME280;25451;51.960;6.250;2024-02-15T09:13:59;101400.81;;;13.24;89.35
39773;BME280;25451;51.960;6.250;2024-02-15T09:16:25;101400.28;;;13.27;89.44
39773;BME280;25451;51.960;6.250;2024-02-15T09:18:50;101391.38;;;13.25;89.16
39773;BME280;25451;51.960;6.250;2024-02-15T09:21:15;101401.13;;;13.28;89.27
39773;BME280;25451;51.960;6.250;2024-02-15T09:23:41;101397.50;;;13.27;89.25
39773;BME280;25451;51.960;6.250;2024-02-15T09:26:06;101401.72;;;13.30;89.29
39773;BME280;25451;51.960;6.250;2024-02-15T09:28:35;101401.13;;;13.28;89.33
39773;BME280;25451;51.960;6.250;2024-02-15T09:31:00;101409.19;;;13.29;89.23
39773;BME280;25451;51.960;6.250;2024-02-15T09:33:27;101415.59;;;13.30;89.37
39773;BME280;25451;51.960;6.250;2024-02-15T09:35:52;101422.56;;;13.32;89.50
39773;BME280;25451;51.960;6.250;2024-02-15T09:38:20;101415.97;;;13.34;89.31
39773;BME280;25451;51.960;6.250;2024-02-15T09:40:48;101397.03;;;13.30;89.41
39773;BME280;25451;51.960;6.250;2024-02-15T09:43:14;101389.91;;;13.35;89.45
39773;BME280;25451;51.960;6.250;2024-02-15T09:45:40;101377.16;;;13.34;89.50
39773;BME280;25451;51.960;6.250;2024-02-15T09:48:06;101389.06;;;13.34;89.51
39773;BME280;25451;51.960;6.250;2024-02-15T09:50:35;101395.69;;;13.33;89.19
39773;BME280;25451;51.960;6.250;2024-02-15T09:53:03;101393.78;;;13.34;89.49
39773;BME280;25451;51.960;6.250;2024-02-15T09:55:31;101393.78;;;13.34;89.51
39773;BME280;25451;51.960;6.250;2024-02-15T09:57:58;101392.69;;;13.35;89.44
39773;BME280;25451;51.960;6.250;2024-02-15T10:00:24;101392.09;;;13.32;89.53
39773;BME280;25451;51.960;6.250;2024-02-15T10:02:51;101384.88;;;13.32;89.66
39773;BME280;25451;51.960;6.250;2024-02-15T10:05:18;101375.94;;;13.29;89.42
39773;BME280;25451;51.960;6.250;2024-02-15T10:07:45;101388.22;;;13.34;89.64
39773;BME280;25451;51.960;6.250;2024-02-15T10:10:18;101388.22;;;13.34;89.62
39773;BME280;25451;51.960;6.250;2024-02-15T10:12:54;101386.53;;;13.32;89.60
39773;BME280;25451;51.960;6.250;2024-02-15T10:15:37;101393.78;;;13.34;89.15
39773;BME280;25451;51.960;6.250;2024-02-15T10:18:04;101383.50;;;13.34;89.46
39773;BME280;25451;51.960;6.250;2024-02-15T10:20:31;101387.97;;;13.35;89.41
39773;BME280;25451;51.960;6.250;2024-02-15T10:25:34;101387.97;;;13.35;89.50
39773;BME280;25451;51.960;6.250;2024-02-15T10:28:09;101373.53;;;13.33;89.42
39773;BME280;25451;51.960;6.250;2024-02-15T10:30:42;101383.28;;;13.36;89.40
39773;BME280;25451;51.960;6.250;2024-02-15T10:33:26;101378.81;;;13.35;89.49
39773;BME280;25451;51.960;6.250;2024-02-15T10:36:05;101374.13;;;13.35;89.55
39773;BME280;25451;51.960;6.250;2024-02-15T10:38:31;101362.16;;;13.35;89.49
39773;BME280;25451;51.960;6.250;2024-02-15T10:41:03;101360.00;;;13.37;89.47
39773;BME280;25451;51.960;6.250;2024-02-15T10:43:30;101349.75;;;13.37;89.40
39773;BME280;25451;51.960;6.250;2024-02-15T10:45:56;101356.72;;;13.40;89.55
39773;BME280;25451;51.960;6.250;2024-02-15T10:48:21;101369.50;;;13.41;89.43
39773;BME280;25451;51.960;6.250;2024-02-15T10:50:47;101353.44;;;13.43;89.34
39773;BME280;25451;51.960;6.250;2024-02-15T10:58:19;101348.00;;;13.48;89.52
39773;BME280;25451;51.960;6.250;2024-02-15T11:00:46;101350.50;;;13.49;89.58
39773;BME280;25451;51.960;6.250;2024-02-15T11:03:19;101355.47;;;13.47;89.27
39773;BME280;25451;51.960;6.250;2024-02-15T11:05:47;101357.50;;;13.52;89.31
39773;BME280;25451;51.960;6.250;2024-02-15T11:08:13;101359.69;;;13.50;89.53
39773;BME280;25451;51.960;6.250;2024-02-15T11:10:39;101353.88;;;13.51;89.51
39773;BME280;25451;51.960;6.250;2024-02-15T11:13:09;101362.53;;;13.55;89.41
39773;BME280;25451;51.960;6.250;2024-02-15T11:18:00;101354.78;;;13.57;89.34
39773;BME280;25451;51.960;6.250;2024-02-15T11:20:45;101358.16;;;13.59;89.55
39773;BME280;25451;51.960;6.250;2024-02-15T11:23:11;101347.91;;;13.59;89.40
39773;BME280;25451;51.960;6.250;2024-02-15T11:25:37;101346.00;;;13.60;89.40
39773;BME280;25451;51.960;6.250;2024-02-15T11:30:49;101337.16;;;13.63;89.68
39773;BME280;25451;51.960;6.250;2024-02-15T11:33:31;101336.06;;;13.64;89.47
39773;BME280;25451;51.960;6.250;2024-02-15T11:36:04;101334.97;;;13.65;89.62
39773;BME280;25451;51.960;6.250;2024-02-15T11:38:30;101338.91;;;13.69;89.64
39773;BME280;25451;51.960;6.250;2024-02-15T11:46:13;101315.97;;;13.73;89.41
39773;BME280;25451;51.960;6.250;2024-02-15T11:48:38;101318.47;;;13.75;89.47
39773;BME280;25451;51.960;6.250;2024-02-15T11:51:07;101314.09;;;13.79;89.56
39773;BME280;25451;51.960;6.250;2024-02-15T11:53:32;101310.50;;;13.78;89.49
39773;BME280;25451;51.960;6.250;2024-02-15T11:56:01;101315.25;;;13.83;89.34
39773;BME280;25451;51.960;6.250;2024-02-15T11:58:27;101313.94;;;13.85;89.45
39773;BME280;25451;51.960;6.250;2024-02-15T12:01:11;101315.63;;;13.86;89.59
39773;BME280;25451;51.960;6.250;2024-02-15T12:03:55;101304.84;;;13.90;89.53
39773;BME280;25451;51.960;6.250;2024-02-15T12:06:40;101294.00;;;13.88;89.38
39773;BME280;25451;51.960;6.250;2024-02-15T12:09:24;101294.91;;;13.94;89.59
39773;BME280;25451;51.960;6.250;2024-02-15T12:12:09;101292.47;;;13.97;89.43
39773;BME280;25451;51.960;6.250;2024-02-15T12:15:02;101286.66;;;13.99;89.46
39773;BME280;25451;51.960;6.250;2024-02-15T12:17:46;101288.34;;;14.00;89.43
39773;BME280;25451;51.960;6.250;2024-02-15T12:20:30;101284.81;;;14.04;89.49
39773;BME280;25451;51.960;6.250;2024-02-15T12:22:57;101277.63;;;14.08;89.37
39773;BME280;25451;51.960;6.250;2024-02-15T12:25:23;101287.94;;;14.13;89.45
39773;BME280;25451;51.960;6.250;2024-02-15T12:27:56;101281.91;;;14.16;89.58
39773;BME280;25451;51.960;6.250;2024-02-15T12:30:22;101276.66;;;14.20;89.30
39773;BME280;25451;51.960;6.250;2024-02-15T12:32:51;101277.25;;;14.22;89.29
39773;BME280;25451;51.960;6.250;2024-02-15T12:35:21;101270.94;;;14.26;89.40
39773;BME280;25451;51.960;6.250;2024-02-15T12:38:00;101266.56;;;14.30;89.37
39773;BME280;25451;51.960;6.250;2024-02-15T12:40:37;101266.06;;;14.33;89.34
39773;BME280;25451;51.960;6.250;2024-02-15T12:43:07;101264.69;;;14.36;89.34
39773;BME280;25451;51.960;6.250;2024-02-15T12:45:38;101252.75;;;14.35;89.51
39773;BME280;25451;51.960;6.250;2024-02-15T12:48:06;101253.06;;;14.39;89.30
39773;BME280;25451;51.960;6.250;2024-02-15T12:50:32;101242.28;;;14.42;89.49
39773;BME280;25451;51.960;6.250;2024-02-15T12:52:58;101247.81;;;14.42;89.50
39773;BME280;25451;51.960;6.250;2024-02-15T12:55:31;101247.91;;;14.47;89.51
39773;BME280;25451;51.960;6.250;2024-02-15T12:58:00;101245.72;;;14.49;89.42
39773;BME280;25451;51.960;6.250;2024-02-15T13:00:32;101242.66;;;14.51;89.60
39773;BME280;25451;51.960;6.250;2024-02-15T13:02:59;101243.22;;;14.53;89.31
39773;BME280;25451;51.960;6.250;2024-02-15T13:05:27;101235.75;;;14.53;89.49
39773;BME280;25451;51.960;6.250;2024-02-15T13:07:54;101238.00;;;14.56;89.58
39773;BME280;25451;51.960;6.250;2024-02-15T13:10:30;101239.09;;;14.55;89.48